Time;durP1;ratioP1;P1;durP2;ratioP2;P2;SDS_P1;SDS_P2;PMS_P1;PMS_P2;Temp;Humidity;BMP_temperature;BMP_pressure;BME280_temperature;BME280_humidity;BME280_pressure;Samples;Min_cycle;Max_cycle;Signal;HPM_P1;HPM_P2
2022/05/21 00:00:50;;;;;;;1.47;0.87;;;;;;;16.40;94.66;100564.59;5052756;28;20430;-75
2022/05/21 00:03:16;;;;;;;3.23;0.83;;;;;;;16.45;94.77;100567.09;5052619;28;20442;-75
2022/05/21 00:05:44;;;;;;;1.63;0.73;;;;;;;16.47;95.20;100564.84;5052578;28;20458;-73
2022/05/21 00:08:10;;;;;;;1.40;1.00;;;;;;;16.47;95.05;100574.97;5052295;28;20952;-74
2022/05/21 00:10:40;;;;;;;1.40;1.03;;;;;;;16.50;95.75;100577.03;5052562;28;20445;-74
2022/05/21 00:13:07;;;;;;;1.50;1.03;;;;;;;16.53;93.07;100554.47;5052532;28;20442;-73
2022/05/21 00:15:35;;;;;;;1.63;0.77;;;;;;;16.55;93.47;100576.78;5052497;28;20474;-74
2022/05/21 00:18:03;;;;;;;1.67;1.00;;;;;;;16.51;92.10;100584.06;5052515;28;20508;-75
2022/05/21 00:20:48;;;;;;;1.40;1.03;;;;;;;16.55;91.20;100572.13;5052476;28;20789;-74
2022/05/21 00:23:17;;;;;;;1.40;1.20;;;;;;;16.55;90.94;100576.78;5055430;28;20801;-72
2022/05/21 00:25:46;;;;;;;2.20;1.03;;;;;;;16.55;90.42;100588.53;5055846;28;20481;-74
2022/05/21 00:28:13;;;;;;;2.37;1.03;;;;;;;16.55;91.20;100587.72;5056012;28;20863;-73
2022/05/21 00:30:39;;;;;;;4.83;1.10;;;;;;;16.50;91.93;100588.75;5055973;28;20548;-74
2022/05/21 00:33:07;;;;;;;1.30;1.13;;;;;;;16.49;91.49;100594.56;5055938;28;20909;-75
2022/05/21 00:35:33;;;;;;;2.30;1.43;;;;;;;16.45;91.51;100593.66;5055856;28;20505;-75
2022/05/21 00:38:00;;;;;;;2.40;1.13;;;;;;;16.53;91.12;100603.69;5055847;28;20481;-71
2022/05/21 00:40:27;;;;;;;1.80;1.10;;;;;;;16.44;91.39;100606.53;5055488;28;20450;-71
2022/05/21 00:42:55;;;;;;;2.60;1.80;;;;;;;16.49;91.54;100610.97;5055764;28;20816;-70
2022/05/21 00:45:21;;;;;;;2.27;1.23;;;;;;;16.60;88.80;100623.06;5055662;28;20485;-69
2022/05/21 00:47:48;;;;;;;1.93;1.20;;;;;;;16.39;89.00;100602.09;5055632;28;20446;-71
2022/05/21 00:50:16;;;;;;;1.57;1.20;;;;;;;16.44;89.97;100625.66;5055735;28;20473;-76
2022/05/21 00:52:44;;;;;;;2.00;1.00;;;;;;;16.40;88.58;100625.53;5056477;28;20469;-77
2022/05/21 00:55:14;;;;;;;1.90;1.30;;;;;;;16.31;88.83;100635.00;5055854;28;20442;-76
2022/05/21 00:57:45;;;;;;;1.30;0.93;;;;;;;16.37;88.57;100659.03;5055586;28;20494;-77
2022/05/21 01:00:16;;;;;;;1.80;1.10;;;;;;;16.37;89.83;100669.16;5055892;28;20430;-78
2022/05/21 01:02:47;;;;;;;2.80;1.50;;;;;;;16.33;89.17;100671.75;5056154;28;20434;-77
2022/05/21 01:05:17;;;;;;;1.40;1.03;;;;;;;16.32;89.48;100688.50;5055952;28;20465;-77
2022/05/21 01:07:46;;;;;;;1.60;1.30;;;;;;;16.30;88.48;100701.75;5055848;28;20843;-77
2022/05/21 01:10:15;;;;;;;2.30;1.40;;;;;;;16.29;87.05;100695.47;5055742;28;20450;-78
2022/05/21 01:12:47;;;;;;;1.63;1.13;;;;;;;16.25;88.02;100702.75;5055588;28;20963;-77
2022/05/21 01:15:18;;;;;;;2.80;1.00;;;;;;;16.24;87.37;100717.53;5055893;28;20430;-77
2022/05/21 01:17:45;;;;;;;2.03;1.50;;;;;;;16.19;85.82;100703.28;5056330;28;20466;-78
2022/05/21 01:20:15;;;;;;;2.00;1.30;;;;;;;16.12;85.34;100698.38;5055783;28;20446;-79
2022/05/21 01:22:46;;;;;;;3.43;1.53;;;;;;;16.14;86.99;100704.28;5055663;28;20473;-76
2022/05/21 01:25:17;;;;;;;3.73;1.23;;;;;;;16.03;88.29;100717.56;5055326;28;20920;-78
2022/05/21 01:27:45;;;;;;;1.63;1.00;;;;;;;15.97;86.04;100723.56;5056029;28;20419;-77
2022/05/21 01:30:16;;;;;;;2.40;1.43;;;;;;;16.00;87.36;100731.09;5055802;28;20496;-78
2022/05/21 01:32:45;;;;;;;3.40;1.10;;;;;;;15.91;88.46;100731.16;5055654;28;20804;-78
2022/05/21 01:35:12;;;;;;;1.63;1.00;;;;;;;15.92;87.36;100734.69;5056140;28;20439;-78
2022/05/21 01:37:39;;;;;;;1.60;1.17;;;;;;;15.91;86.86;100744.03;5055690;28;20477;-77
2022/05/21 01:40:08;;;;;;;2.60;1.33;;;;;;;15.97;86.73;100737.22;5057613;28;20495;-77
2022/05/21 01:42:35;;;;;;;1.80;1.00;;;;;;;15.89;86.34;100736.16;5055787;28;20438;-77
2022/05/21 01:45:01;;;;;;;1.60;0.97;;;;;;;15.87;86.46;100736.47;5056721;28;20453;-78
2022/05/21 01:47:31;;;;;;;1.53;1.30;;;;;;;15.86;87.06;100731.38;5056921;28;20462;-78
2022/05/21 01:49:57;;;;;;;1.63;1.10;;;;;;;15.79;87.39;100740.06;5057058;28;20204;-78
2022/05/21 01:52:24;;;;;;;1.33;1.00;;;;;;;15.80;87.63;100735.41;5056595;28;20442;-79
2022/05/21 01:54:51;;;;;;;1.23;0.73;;;;;;;15.76;87.20;100748.94;5056817;28;20446;-78
2022/05/21 01:57:19;;;;;;;3.03;1.30;;;;;;;15.79;87.11;100756.47;5056225;28;20526;-78
2022/05/21 01:59:46;;;;;;;7.30;1.30;;;;;;;15.74;87.41;100756.66;5056779;28;20442;-78
2022/05/21 02:02:12;;;;;;;2.40;1.50;;;;;;;15.78;87.52;100754.88;5056070;28;20477;-79
2022/05/21 02:04:39;;;;;;;3.03;1.20;;;;;;;15.75;87.82;100761.00;5055948;28;20438;-78
2022/05/21 02:07:05;;;;;;;1.50;1.00;;;;;;;15.77;88.34;100760.69;5055677;28;20466;-78
2022/05/21 02:09:32;;;;;;;1.20;0.90;;;;;;;15.74;87.49;100764.06;5055971;28;20469;-78
2022/05/21 02:11:58;;;;;;;1.80;0.90;;;;;;;15.78;86.19;100765.78;5055864;28;20438;-78
2022/05/21 02:14:26;;;;;;;1.77;1.37;;;;;;;15.75;86.39;100779.31;5056221;28;20449;-78
2022/05/21 02:16:53;;;;;;;1.23;0.90;;;;;;;15.70;87.00;100777.56;5054944;28;20466;-75
2022/05/21 02:19:19;;;;;;;2.67;1.40;;;;;;;15.68;86.09;100785.31;5054108;28;20474;-77
2022/05/21 02:21:46;;;;;;;1.47;1.00;;;;;;;15.70;85.64;100780.31;5054188;28;20847;-76
2022/05/21 02:24:13;;;;;;;1.70;1.20;;;;;;;15.71;85.59;100783.84;5055485;28;20453;-81
2022/05/21 02:26:40;;;;;;;1.63;1.40;;;;;;;15.72;85.81;100788.19;5056804;28;20474;-78
2022/05/21 02:29:07;;;;;;;1.20;0.90;;;;;;;15.64;85.72;100795.28;5054907;28;20820;-80
2022/05/21 02:31:35;;;;;;;1.47;0.93;;;;;;;15.69;84.26;100797.81;5054115;28;20449;-77
2022/05/21 02:34:01;;;;;;;1.53;1.10;;;;;;;15.72;84.65;100807.31;5053489;28;21005;-78
2022/05/21 02:39:28;;;;;;;1.53;0.87;;;;;;;15.72;84.21;100813.56;5054278;28;20458;-77
2022/05/21 02:41:56;;;;;;;5.50;2.00;;;;;;;15.60;84.87;100813.44;5054032;28;20426;-77
2022/05/21 02:44:23;;;;;;;1.33;1.00;;;;;;;15.63;85.25;100826.44;5053319;28;20446;-76
2022/05/21 02:46:51;;;;;;;1.67;1.17;;;;;;;15.60;83.54;100827.88;5053716;28;20910;-77
2022/05/21 02:49:17;;;;;;;4.10;1.63;;;;;;;15.49;82.75;100836.75;5053571;28;20469;-77
2022/05/21 02:51:44;;;;;;;1.93;1.47;;;;;;;15.43;82.10;100827.97;5053750;28;20445;-75
2022/05/21 02:54:14;;;;;;;1.90;1.60;;;;;;;15.43;83.31;100821.69;5053440;28;20843;-77
2022/05/21 02:56:44;;;;;;;1.43;0.80;;;;;;;15.45;83.83;100830.34;5053157;28;20999;-76
2022/05/21 02:59:11;;;;;;;1.90;1.00;;;;;;;15.36;82.77;100844.84;5053398;28;20562;-77
2022/05/21 03:01:38;;;;;;;1.90;1.30;;;;;;;15.31;83.72;100845.00;5053475;28;20446;-76
2022/05/21 03:04:07;;;;;;;1.80;1.23;;;;;;;15.38;82.60;100847.25;5053576;28;20438;-77
2022/05/21 03:06:34;;;;;;;1.87;1.37;;;;;;;15.31;83.85;100866.03;5053227;28;20473;-77
2022/05/21 03:11:44;;;;;;;1.57;1.30;;;;;;;15.16;83.12;100861.91;5053333;28;20996;-76
2022/05/21 03:14:11;;;;;;;2.13;1.27;;;;;;;15.08;83.34;100862.75;5053188;28;20944;-76
2022/05/21 03:16:37;;;;;;;3.00;1.07;;;;;;;15.06;82.56;100859.53;5053062;28;20466;-75
2022/05/21 03:19:04;;;;;;;1.43;1.10;;;;;;;14.96;83.45;100884.41;5052986;28;20482;-72
2022/05/21 03:21:31;;;;;;;2.77;1.40;;;;;;;14.98;83.59;100874.00;5053081;28;20441;-74
2022/05/21 03:23:58;;;;;;;2.03;1.30;;;;;;;14.88;83.58;100886.84;5052729;28;20940;-74
2022/05/21 03:26:25;;;;;;;1.40;1.00;;;;;;;14.83;83.20;100884.28;5052748;28;20573;-74
2022/05/21 03:28:52;;;;;;;2.13;0.93;;;;;;;14.87;83.76;100881.69;5054136;28;20947;-73
2022/05/21 03:31:18;;;;;;;2.67;1.50;;;;;;;14.86;83.62;100889.09;5053067;28;20851;-75
2022/05/21 03:33:45;;;;;;;1.73;1.07;;;;;;;14.80;84.72;100882.19;5052674;28;20845;-74
2022/05/21 03:36:11;;;;;;;2.10;1.27;;;;;;;14.79;84.37;100902.41;5052926;28;20500;-75
2022/05/21 03:38:39;;;;;;;2.30;1.53;;;;;;;14.73;83.86;100902.88;5052862;28;20547;-75
2022/05/21 03:41:06;;;;;;;1.10;0.90;;;;;;;14.64;84.28;100911.06;5052594;28;20935;-74
2022/05/21 03:43:32;;;;;;;1.80;1.40;;;;;;;14.63;84.09;100925.81;5052867;28;20435;-75
2022/05/21 03:45:59;;;;;;;1.90;1.47;;;;;;;14.60;85.01;100915.56;5053137;28;20462;-78
2022/05/21 03:48:25;;;;;;;2.77;1.33;;;;;;;14.60;84.81;100921.00;5053694;28;20442;-76
2022/05/21 03:50:52;;;;;;;1.93;1.63;;;;;;;14.59;84.11;100931.13;5053031;28;20430;-76
2022/05/21 03:53:18;;;;;;;2.00;0.97;;;;;;;14.51;84.32;100929.16;5052821;28;20438;-75
2022/05/21 03:55:46;;;;;;;2.10;1.20;;;;;;;14.49;85.28;100941.53;5052707;28;20485;-76
2022/05/21 03:58:15;;;;;;;2.30;1.23;;;;;;;14.45;84.69;100945.97;5055831;28;20481;-75
2022/05/21 04:00:41;;;;;;;2.37;1.43;;;;;;;14.40;85.39;100946.94;5056588;28;20853;-75
2022/05/21 04:03:08;;;;;;;2.00;0.93;;;;;;;14.38;85.21;100952.69;5056541;28;20450;-75
2022/05/21 04:05:34;;;;;;;2.67;0.90;;;;;;;14.39;84.64;100954.31;5056510;28;20468;-75
2022/05/21 04:08:02;;;;;;;1.53;0.87;;;;;;;14.39;84.88;100961.69;5056401;28;20442;-74
2022/05/21 04:10:28;;;;;;;0.90;0.70;;;;;;;14.44;84.98;100977.09;5056455;28;20474;-75
2022/05/21 04:12:56;;;;;;;1.03;0.67;;;;;;;14.41;84.16;100980.44;5056109;28;20940;-75
2022/05/21 04:15:23;;;;;;;1.57;1.03;;;;;;;14.35;84.64;100982.53;5056183;28;20438;-73
2022/05/21 04:17:50;;;;;;;1.37;0.90;;;;;;;14.36;84.36;100986.84;5056136;28;20465;-75
2022/05/21 04:20:17;;;;;;;1.90;0.97;;;;;;;14.28;82.83;100988.41;5055952;28;20446;-74
2022/05/21 04:22:44;;;;;;;1.27;1.00;;;;;;;14.29;81.90;100998.19;5056188;28;20488;-75
2022/05/21 04:25:10;;;;;;;1.33;0.73;;;;;;;14.35;78.99;101017.94;5056013;28;20446;-75
2022/05/21 04:27:39;;;;;;;1.60;1.00;;;;;;;14.35;79.51;100999.66;5055788;28;20512;-76
2022/05/21 04:30:10;;;;;;;2.80;1.20;;;;;;;14.34;80.81;101014.41;5056068;28;20472;-76
2022/05/21 04:32:36;;;;;;;1.10;0.90;;;;;;;14.44;81.05;101021.50;5056016;28;20423;-76
2022/05/21 04:35:03;;;;;;;1.53;0.70;;;;;;;14.45;81.08;101027.75;5055616;28;20507;-76
2022/05/21 04:37:30;;;;;;;3.47;1.30;;;;;;;14.37;80.92;101030.13;5055675;28;20496;-75
2022/05/21 04:39:56;;;;;;;0.73;0.60;;;;;;;14.42;80.93;101050.19;5055771;28;20489;-76
2022/05/21 04:42:22;;;;;;;1.13;0.83;;;;;;;14.41;81.53;101043.13;5055810;28;20443;-75
2022/05/21 04:44:49;;;;;;;2.83;1.40;;;;;;;14.42;81.70;101063.81;5055503;28;20495;-75
2022/05/21 04:47:17;;;;;;;2.00;1.30;;;;;;;14.35;81.47;101056.09;5055645;28;20471;-73
2022/05/21 04:49:43;;;;;;;1.40;0.90;;;;;;;14.36;81.45;101074.84;5055686;28;20445;-75
2022/05/21 04:52:09;;;;;;;1.73;1.03;;;;;;;14.36;80.90;101065.88;5055199;28;20936;-75
2022/05/21 04:54:37;;;;;;;2.10;1.90;;;;;;;14.28;81.35;101066.63;5055592;28;20437;-74
2022/05/21 04:57:04;;;;;;;1.40;1.30;;;;;;;14.10;83.03;101074.72;5055467;28;20469;-74
2022/05/21 04:59:30;;;;;;;2.23;1.10;;;;;;;14.11;82.65;101072.81;5055376;28;20537;-74
2022/05/21 05:01:58;;;;;;;1.20;0.93;;;;;;;14.07;82.51;101085.44;5055419;28;20447;-75
2022/05/21 05:04:26;;;;;;;1.63;1.00;;;;;;;14.03;83.04;101085.28;5055413;28;20541;-74
2022/05/21 05:06:53;;;;;;;3.10;1.27;;;;;;;14.05;82.39;101068.63;5054961;28;21053;-74
2022/05/21 05:09:22;;;;;;;1.87;1.20;;;;;;;13.94;82.46;101076.22;5054999;28;20462;-74
2022/05/21 05:11:49;;;;;;;3.03;1.20;;;;;;;13.96;82.00;101086.84;5055377;28;20454;-75
2022/05/21 05:14:16;;;;;;;1.67;1.07;;;;;;;13.97;82.21;101093.88;5055314;28;20508;-74
2022/05/21 05:16:42;;;;;;;1.20;0.73;;;;;;;13.93;81.31;101093.69;5055117;28;20466;-75
2022/05/21 05:19:09;;;;;;;1.37;0.87;;;;;;;13.85;81.83;101097.16;5055016;28;20896;-74
2022/05/21 05:21:37;;;;;;;1.23;1.00;;;;;;;13.79;82.89;101088.31;5055196;28;20442;-74
2022/05/21 05:24:04;;;;;;;3.37;0.90;;;;;;;13.90;81.57;101094.34;5055100;28;20499;-74
2022/05/21 05:26:31;;;;;;;1.47;1.03;;;;;;;13.94;82.93;101099.94;5054514;28;20995;-73
2022/05/21 05:28:58;;;;;;;4.90;1.37;;;;;;;14.04;81.39;101091.53;5054902;28;20492;-73
2022/05/21 05:31:24;;;;;;;2.50;1.27;;;;;;;14.11;80.82;101100.03;5054896;28;20442;-73
2022/05/21 05:33:51;;;;;;;2.57;1.40;;;;;;;14.16;81.30;101104.56;5055083;28;20450;-73
2022/05/21 05:36:17;;;;;;;1.60;1.10;;;;;;;14.19;81.76;101107.47;5054672;28;20494;-72
2022/05/21 05:38:45;;;;;;;1.70;1.10;;;;;;;14.14;80.17;101104.88;5054678;28;20484;-73
2022/05/21 05:41:11;;;;;;;1.50;0.70;;;;;;;14.16;79.31;101112.72;5054748;28;20442;-73
2022/05/21 05:43:38;;;;;;;2.50;1.13;;;;;;;14.19;78.29;101107.47;5054716;28;20446;-76
2022/05/21 05:46:04;;;;;;;1.90;1.10;;;;;;;14.23;79.49;101108.44;5054507;28;20473;-76
2022/05/21 05:48:31;;;;;;;5.43;1.63;;;;;;;14.17;78.14;101114.38;5054310;28;20818;-75
2022/05/21 05:50:59;;;;;;;1.20;0.90;;;;;;;14.22;78.99;101101.41;5054562;28;20446;-74
2022/05/21 05:53:26;;;;;;;7.43;1.07;;;;;;;14.33;78.74;101100.00;5054525;28;20446;-75
2022/05/21 05:55:54;;;;;;;1.73;1.17;;;;;;;14.33;76.20;101097.28;5054203;28;21011;-76
2022/05/21 06:01:06;;;;;;;1.90;1.40;;;;;;;14.61;76.77;101099.84;5054252;28;20414;-75
2022/05/21 06:03:34;;;;;;;2.30;1.30;;;;;;;14.71;74.51;101107.75;5054189;28;20446;-75
2022/05/21 06:06:01;;;;;;;2.50;0.80;;;;;;;14.76;74.76;101107.59;5054112;28;20458;-75
2022/05/21 06:08:28;;;;;;;1.93;1.03;;;;;;;14.78;74.48;101110.78;5054227;28;20450;-75
2022/05/21 06:10:55;;;;;;;1.90;0.97;;;;;;;14.79;75.08;101119.78;5054197;28;20454;-75
2022/05/21 06:13:22;;;;;;;2.30;0.93;;;;;;;14.80;76.81;101122.19;5053750;28;20446;-75
2022/05/21 06:15:48;;;;;;;2.53;1.57;;;;;;;14.95;73.79;101125.59;5053794;28;21062;-76
2022/05/21 06:18:19;;;;;;;5.77;1.30;;;;;;;14.93;75.77;101125.13;5053998;28;20857;-77
2022/05/21 06:20:46;;;;;;;1.57;1.03;;;;;;;14.92;73.87;101131.69;5053277;28;20422;-76
2022/05/21 06:23:13;;;;;;;2.57;1.67;;;;;;;14.93;74.08;101127.84;5053840;28;20442;-76
2022/05/21 06:25:40;;;;;;;1.33;1.03;;;;;;;14.96;74.29;101133.47;5053626;28;20513;-76
2022/05/21 06:28:08;;;;;;;2.33;1.20;;;;;;;14.76;74.37;101136.78;5053633;28;20828;-76
2022/05/21 06:30:37;;;;;;;1.73;1.20;;;;;;;14.74;73.98;101128.94;5053724;28;20438;-75
2022/05/21 06:33:12;;;;;;;1.77;1.17;;;;;;;14.76;75.04;101137.59;5053459;28;20939;-75
2022/05/21 06:35:39;;;;;;;3.27;1.53;;;;;;;14.78;74.47;101140.00;5053630;28;20465;-76
2022/05/21 06:38:05;;;;;;;1.13;0.87;;;;;;;14.76;73.67;101151.22;5053702;28;20442;-74
2022/05/21 06:40:32;;;;;;;2.10;1.43;;;;;;;14.76;73.50;101143.03;5053524;28;20838;-72
2022/05/21 06:43:00;;;;;;;1.50;1.10;;;;;;;14.85;73.10;101157.50;5053607;28;20438;-68
2022/05/21 06:45:28;;;;;;;1.13;0.90;;;;;;;14.77;72.83;101141.91;5053421;28;20477;-68
2022/05/21 06:47:54;;;;;;;1.57;1.03;;;;;;;14.79;74.00;101138.88;5053472;28;20438;-69
2022/05/21 06:50:21;;;;;;;2.60;1.43;;;;;;;14.95;74.05;101141.97;5053407;28;20442;-69
2022/05/21 06:52:47;;;;;;;5.70;1.23;;;;;;;15.06;72.67;101146.03;5053029;28;20947;-69
2022/05/21 06:55:14;;;;;;;0.70;0.50;;;;;;;15.10;72.33;101133.34;5053234;28;20500;-69
2022/05/21 06:57:40;;;;;;;3.03;1.00;;;;;;;15.21;74.29;101134.66;5053356;28;20446;-71
2022/05/21 07:00:08;;;;;;;1.87;1.43;;;;;;;15.30;73.13;101137.38;5053174;28;20532;-71
2022/05/21 07:02:36;;;;;;;1.30;1.00;;;;;;;15.21;72.92;101153.75;5052891;28;20862;-70
2022/05/21 07:07:46;;;;;;;1.10;0.60;;;;;;;15.19;72.13;101150.56;5053140;28;20406;-71
2022/05/21 07:10:19;;;;;;;2.00;1.17;;;;;;;15.14;73.36;101148.78;5052975;28;20526;-72
2022/05/21 07:12:46;;;;;;;1.60;0.90;;;;;;;15.11;71.72;101165.78;5053176;28;20438;-72
2022/05/21 07:15:13;;;;;;;1.00;0.80;;;;;;;15.12;73.59;101164.66;5053056;28;20468;-72
2022/05/21 07:17:42;;;;;;;0.90;0.70;;;;;;;15.26;72.64;101150.88;5052795;28;20850;-72
2022/05/21 07:20:11;;;;;;;1.40;1.00;;;;;;;15.29;72.80;101155.69;5053005;28;20532;-72
2022/05/21 07:22:40;;;;;;;2.80;1.60;;;;;;;15.38;72.17;101155.72;5053103;28;20477;-72
2022/05/21 07:25:07;;;;;;;1.40;0.87;;;;;;;15.34;73.13;101152.81;5052930;28;20466;-71
2022/05/21 07:27:33;;;;;;;2.10;0.90;;;;;;;15.32;73.60;101149.63;5052508;28;20807;-71
2022/05/21 07:30:00;;;;;;;1.90;1.20;;;;;;;15.36;73.90;101145.13;5052599;28;20438;-69
2022/05/21 07:32:27;;;;;;;13.47;1.10;;;;;;;15.28;75.10;101132.25;5056534;28;20453;-69
2022/05/21 07:35:00;;;;;;;2.20;1.03;;;;;;;15.39;75.64;101132.75;5057096;28;20533;-70
2022/05/21 07:37:27;;;;;;;2.77;1.23;;;;;;;15.52;74.47;101139.97;5057106;28;20488;-74
2022/05/21 07:39:53;;;;;;;2.40;1.07;;;;;;;15.67;74.15;101127.81;5056983;28;20526;-72
2022/05/21 07:42:19;;;;;;;4.20;1.07;;;;;;;15.73;75.07;101123.00;5056946;28;20442;-73
2022/05/21 07:44:47;;;;;;;2.13;1.20;;;;;;;15.83;73.06;101131.66;5056872;28;20446;-74
2022/05/21 07:47:13;;;;;;;2.53;1.40;;;;;;;15.92;73.90;101128.91;5056865;28;20584;-70
2022/05/21 07:49:40;;;;;;;1.47;1.20;;;;;;;16.08;72.78;101124.56;5056805;28;20442;-70
2022/05/21 07:52:09;;;;;;;1.73;1.10;;;;;;;16.19;71.84;101127.72;5056837;28;20532;-72
2022/05/21 07:54:36;;;;;;;1.50;1.20;;;;;;;16.19;71.21;101119.53;5056818;28;20450;-73
2022/05/21 07:57:03;;;;;;;1.53;1.30;;;;;;;16.20;71.53;101112.94;5056581;28;20457;-72
2022/05/21 07:59:30;;;;;;;3.17;1.47;;;;;;;16.31;74.48;101116.13;5056305;28;20488;-74
2022/05/21 08:01:56;;;;;;;2.57;1.47;;;;;;;16.57;70.66;101110.56;5056635;28;20426;-75
2022/05/21 08:04:23;;;;;;;0.90;0.70;;;;;;;16.92;71.81;101113.16;5056575;28;20454;-75
2022/05/21 08:06:49;;;;;;;4.07;1.67;;;;;;;17.23;67.83;101113.59;5056399;28;20527;-74
2022/05/21 08:09:17;;;;;;;4.30;1.70;;;;;;;17.34;67.30;101112.06;5056489;28;20438;-74
2022/05/21 08:11:44;;;;;;;1.63;1.10;;;;;;;17.53;67.43;101114.34;5056499;28;20553;-75
2022/05/21 08:14:10;;;;;;;1.27;0.97;;;;;;;17.60;69.82;101122.81;5056322;28;20520;-75
2022/05/21 08:16:37;;;;;;;1.60;1.07;;;;;;;17.87;67.68;101123.41;5056166;28;20462;-75
2022/05/21 08:19:04;;;;;;;1.33;0.93;;;;;;;18.07;67.31;101128.06;5056146;28;20469;-75
2022/05/21 08:21:31;;;;;;;2.40;1.43;;;;;;;18.09;66.64;101117.53;5056202;28;20444;-75
2022/05/21 08:26:59;;;;;;;1.23;0.93;;;;;;;17.90;66.12;101129.03;5055778;28;20468;-75
2022/05/21 08:29:26;;;;;;;1.83;1.20;;;;;;;17.92;65.83;101125.13;5056073;28;20434;-74
2022/05/21 08:31:53;;;;;;;1.20;0.90;;;;;;;17.75;65.09;101115.97;5055955;28;20446;-74
2022/05/21 08:34:20;;;;;;;1.47;0.93;;;;;;;17.73;65.76;101118.19;5055704;28;20488;-75
2022/05/21 08:36:46;;;;;;;2.30;1.20;;;;;;;17.47;67.01;101114.88;5055884;28;20591;-73
2022/05/21 08:39:13;;;;;;;3.10;1.37;;;;;;;17.14;66.75;101129.28;5055815;28;20448;-71
2022/05/21 08:41:46;;;;;;;1.63;1.07;;;;;;;16.84;70.00;101126.56;5055809;28;20445;-73
2022/05/21 08:44:19;;;;;;;1.63;1.00;;;;;;;16.48;73.76;101118.00;5055333;28;20465;-75
2022/05/21 08:47:01;;;;;;;1.23;0.87;;;;;;;16.06;77.66;101148.66;5055740;28;20993;-75
2022/05/21 08:49:33;;;;;;;2.03;1.10;;;;;;;15.39;85.91;101158.13;5056380;28;20461;-76
2022/05/21 08:52:06;;;;;;;1.00;0.70;;;;;;;14.87;90.99;101146.28;5056240;28;20524;-77
2022/05/21 08:54:35;;;;;;;1.93;1.13;;;;;;;14.56;94.72;101157.22;5055610;28;20419;-75
2022/05/21 08:57:05;;;;;;;2.80;1.40;;;;;;;14.39;97.61;101150.56;5055246;28;20450;-76
2022/05/21 08:59:40;;;;;;;1.50;1.10;;;;;;;14.39;100.00;101149.75;5055025;28;20993;-75
2022/05/21 09:02:11;;;;;;;1.73;1.10;;;;;;;14.33;99.38;101148.25;5055476;28;20426;-76
2022/05/21 09:04:38;;;;;;;2.57;1.13;;;;;;;14.31;100.00;101154.03;5055579;28;20439;-76
2022/05/21 09:07:13;;;;;;;4.23;1.67;;;;;;;14.45;100.00;101158.59;5055473;28;20465;-76
2022/05/21 09:09:47;;;;;;;1.70;1.20;;;;;;;14.59;99.10;101148.41;5055699;28;20430;-77
2022/05/21 09:12:19;;;;;;;2.50;1.30;;;;;;;14.62;95.07;101147.81;5055714;28;20430;-74
2022/05/21 09:14:47;;;;;;;2.53;1.30;;;;;;;14.71;94.14;101150.56;5055652;28;20517;-76
2022/05/21 09:17:15;;;;;;;1.90;1.43;;;;;;;14.79;93.54;101142.41;5055242;28;20468;-75
2022/05/21 09:19:46;;;;;;;3.00;1.90;;;;;;;14.85;92.03;101148.53;5054965;28;20496;-76
2022/05/21 09:22:15;;;;;;;2.40;2.20;;;;;;;14.80;90.05;101144.03;5055488;28;20430;-76
2022/05/21 09:24:44;;;;;;;2.43;2.00;;;;;;;14.84;89.31;101144.19;5055141;28;20450;-75
2022/05/21 09:27:33;;;;;;;2.60;1.57;;;;;;;14.83;91.18;101142.56;5054563;28;20477;-75
2022/05/21 09:30:17;;;;;;;9.10;1.67;;;;;;;14.85;90.60;101137.63;5055068;28;20429;-76
2022/05/21 09:32:46;;;;;;;3.70;2.17;;;;;;;14.91;89.40;101141.00;5056353;28;20433;-75
2022/05/21 09:35:15;;;;;;;3.00;2.10;;;;;;;14.98;89.31;101146.81;5054649;28;20504;-75
2022/05/21 09:37:43;;;;;;;1.43;1.23;;;;;;;15.05;88.43;101139.78;5054811;28;20450;-76
2022/05/21 09:40:31;;;;;;;3.97;1.97;;;;;;;14.98;87.04;101138.63;5054628;28;20482;-75
2022/05/21 09:45:55;;;;;;;2.70;1.77;;;;;;;15.07;88.27;101133.97;4992984;28;20460;-75
2022/05/21 09:48:23;;;;;;;6.83;2.63;;;;;;;15.10;87.65;101136.88;5039486;28;20464;-76
2022/05/21 09:50:53;;;;;;;2.70;1.90;;;;;;;15.20;88.20;101135.78;5054278;28;20978;-75
2022/05/21 09:53:29;;;;;;;3.53;2.13;;;;;;;15.31;88.63;101139.00;5054339;28;20423;-75
2022/05/21 09:56:02;;;;;;;2.90;2.20;;;;;;;15.70;88.05;101143.53;5053377;28;20494;-75
2022/05/21 09:58:33;;;;;;;3.70;2.63;;;;;;;16.14;86.15;101139.63;5054204;28;20932;-74
2022/05/21 10:00:59;;;;;;;5.90;3.30;;;;;;;16.45;82.94;101135.06;5054001;28;21006;-75
2022/05/21 10:03:39;;;;;;;3.67;2.47;;;;;;;16.72;82.61;101134.66;5054002;28;20504;-73
2022/05/21 10:06:15;;;;;;;4.57;3.13;;;;;;;16.93;81.55;101131.19;5054261;28;20465;-76
2022/05/21 10:11:31;;;;;;;5.30;2.73;;;;;;;16.97;78.45;101132.94;5053842;28;20410;-76
2022/05/21 10:14:04;;;;;;;4.20;2.97;;;;;;;17.06;79.85;101132.88;5054071;28;20984;-75
2022/05/21 10:16:37;;;;;;;5.00;3.30;;;;;;;17.13;76.82;101133.13;5054031;28;20812;-75
2022/05/21 10:19:14;;;;;;;6.47;3.83;;;;;;;17.23;76.11;101123.75;5053988;28;20423;-76
2022/05/21 10:21:55;;;;;;;5.40;3.67;;;;;;;17.32;75.61;101119.81;5053769;28;20513;-76
2022/05/21 10:24:29;;;;;;;4.50;3.50;;;;;;;17.55;74.66;101127.69;5054031;28;20427;-76
2022/05/21 10:27:05;;;;;;;4.17;3.20;;;;;;;17.67;73.47;101124.22;5053758;28;20473;-76
2022/05/21 10:29:48;;;;;;;6.63;3.50;;;;;;;17.71;74.47;101125.13;5054413;28;20427;-76
2022/05/21 10:32:27;;;;;;;4.93;3.63;;;;;;;17.85;73.48;101126.50;5053621;28;20449;-76
2022/05/21 10:35:02;;;;;;;4.37;2.90;;;;;;;17.87;71.83;101134.38;5053684;28;20422;-76
2022/05/21 10:37:44;;;;;;;5.80;2.77;;;;;;;17.77;70.27;101113.69;5053595;28;20979;-77
2022/05/21 10:40:31;;;;;;;5.50;3.10;;;;;;;17.60;70.25;101114.59;5053688;28;20465;-77
2022/05/21 10:43:26;;;;;;;5.70;3.10;;;;;;;17.38;72.19;101104.78;5056027;28;20462;-78
2022/05/21 10:46:07;;;;;;;3.00;2.10;;;;;;;17.19;73.05;101109.13;5057337;28;20489;-78
2022/05/21 10:48:46;;;;;;;8.07;2.87;;;;;;;17.00;72.95;101101.34;5056237;28;20426;-78
2022/05/21 10:51:19;;;;;;;3.80;2.83;;;;;;;16.75;73.25;101114.84;5056103;28;20437;-78
2022/05/21 10:54:27;;;;;;;5.60;2.40;;;;;;;16.60;74.03;101118.09;5055294;28;20435;-78
2022/05/21 10:57:05;;;;;;;3.77;2.50;;;;;;;16.82;73.01;101123.34;5041850;28;20489;-79
2022/05/21 10:59:57;;;;;;;4.80;2.17;;;;;;;16.93;75.73;101118.31;5056134;28;20434;-77
2022/05/21 11:02:58;;;;;;;3.60;2.67;;;;;;;17.06;70.92;101110.97;5056299;28;20458;-78
2022/05/21 11:05:41;;;;;;;5.93;3.40;;;;;;;17.28;70.86;101107.13;5055600;28;20427;-77
2022/05/21 11:08:12;;;;;;;6.23;2.87;;;;;;;17.59;68.42;101112.19;5057017;28;20442;-78
2022/05/21 11:10:48;;;;;;;3.63;2.40;;;;;;;17.84;68.65;101094.75;5056709;28;20485;-78
2022/05/21 11:13:20;;;;;;;4.07;2.77;;;;;;;18.20;66.94;101103.41;5053155;28;20847;-72
2022/05/21 11:15:51;;;;;;;2.47;2.00;;;;;;;18.68;66.52;101080.69;5053299;28;20493;-77
2022/05/21 11:18:25;;;;;;;8.00;3.20;;;;;;;18.56;63.80;101097.97;5053270;28;20446;-76
2022/05/21 11:21:01;;;;;;;4.80;2.60;;;;;;;18.56;65.03;101091.69;5055180;28;20470;-77
2022/05/21 11:23:35;;;;;;;5.60;2.70;;;;;;;18.52;65.26;101088.03;5053816;28;20422;-75
2022/05/21 11:26:06;;;;;;;3.77;2.13;;;;;;;18.81;65.00;101092.50;5053519;28;21024;-76
2022/05/21 11:28:42;;;;;;;3.03;2.53;;;;;;;19.01;61.80;101090.78;5052907;28;20912;-73
2022/05/21 11:31:14;;;;;;;4.33;2.47;;;;;;;18.95;62.13;101078.41;5053206;28;20529;-76
2022/05/21 11:39:24;;;;;;;2.40;2.00;;;;;;;19.02;59.98;101089.63;5017604;28;20492;-76
2022/05/21 11:42:02;;;;;;;3.53;2.57;;;;;;;18.81;63.18;101098.78;5052901;28;20482;-76
2022/05/21 11:47:44;;;;;;;2.70;2.40;;;;;;;18.44;63.38;101097.94;5053196;28;20945;-76
2022/05/21 11:50:18;;;;;;;3.73;2.30;;;;;;;18.22;65.16;101096.44;5052838;28;20842;-75
2022/05/21 11:53:08;;;;;;;5.37;3.40;;;;;;;18.17;63.71;101093.91;5052504;28;20552;-74
2022/05/21 11:55:58;;;;;;;3.33;2.20;;;;;;;18.06;64.63;101093.56;5052895;28;20457;-75
2022/05/21 11:59:20;;;;;;;4.50;2.67;;;;;;;17.98;65.59;101102.69;5052750;28;20442;-74
2022/05/21 12:01:52;;;;;;;2.53;2.13;;;;;;;17.97;67.60;101089.28;5052623;28;20474;-74
2022/05/21 12:04:47;;;;;;;12.83;3.33;;;;;;;17.90;66.71;101112.59;5052566;28;20434;-73